createdAt,value
2023-02-17T00:09:41.047Z,63.90
2023-02-17T00:19:44.531Z,60.80
2023-02-17T00:29:49.827Z,55.33
2023-02-17T00:39:54.516Z,58.80
2023-02-17T00:50:01.716Z,61.67
2023-02-17T01:00:05.347Z,61.87
2023-02-17T01:10:13.927Z,61.47
2023-02-17T01:20:21.918Z,61.93
2023-02-17T01:30:26.565Z,70.80
2023-02-17T01:40:28.866Z,65.60
2023-02-17T01:50:56.693Z,63.30
2023-02-17T02:01:05.352Z,62.93
2023-02-17T02:11:13.455Z,59.57
2023-02-17T02:21:38.669Z,59.00
2023-02-17T02:32:27.027Z,61.87
2023-02-17T02:42:32.781Z,57.43
2023-02-17T02:52:51.182Z,57.93
2023-02-17T03:03:06.247Z,53.90
2023-02-17T03:13:08.887Z,55.03
2023-02-17T03:23:12.958Z,61.07
2023-02-17T03:33:15.313Z,61.00
2023-02-17T03:43:18.152Z,64.23
2023-02-17T03:53:22.835Z,57.67
2023-02-17T04:03:29.385Z,61.20
2023-02-17T04:13:34.053Z,63.27
2023-02-17T04:23:41.051Z,59.67
2023-02-17T04:33:43.606Z,58.23
2023-02-17T04:43:51.204Z,57.00
2023-02-17T04:53:53.349Z,60.93
2023-02-17T05:03:57.817Z,63.97
2023-02-17T05:14:00.661Z,63.57
2023-02-17T05:24:06.074Z,62.33
2023-02-17T05:34:09.695Z,64.17
2023-02-17T05:44:14.327Z,64.30
2023-02-17T05:54:16.939Z,66.53
2023-02-17T06:04:19.142Z,67.47
2023-02-17T06:14:25.380Z,71.60
2023-02-17T06:24:33.053Z,70.70
2023-02-17T06:34:37.431Z,55.00
2023-02-17T06:44:40.102Z,57.60
2023-02-17T06:54:47.414Z,57.27
2023-02-17T07:04:49.870Z,62.80
2023-02-17T07:15:00.378Z,58.00
2023-02-17T07:25:08.132Z,55.80
2023-02-17T07:35:10.742Z,52.30
2023-02-17T07:45:26.383Z,53.10
2023-02-17T07:55:35.867Z,54.60
2023-02-17T08:05:42.107Z,52.47
2023-02-17T08:15:49.662Z,63.23
2023-02-17T08:25:51.868Z,53.57
2023-02-17T08:35:56.389Z,50.07
2023-02-17T08:45:59.034Z,47.03
2023-02-17T08:56:03.658Z,47.63
2023-02-17T09:06:10.284Z,43.67
2023-02-17T09:16:14.797Z,44.77
2023-02-17T09:26:20.903Z,41.60
2023-02-17T09:36:30.697Z,46.77
2023-02-17T09:46:56.025Z,48.07
2023-02-17T09:57:09.210Z,48.37
2023-02-17T10:07:33.571Z,48.63
2023-02-17T10:18:00.281Z,44.13
2023-02-17T10:28:15.279Z,45.73
2023-02-17T10:38:27.555Z,47.40
2023-02-17T10:48:32.692Z,50.90
2023-02-17T10:58:43.961Z,47.37
2023-02-17T11:08:53.382Z,52.07
2023-02-17T11:18:56.259Z,44.03
2023-02-17T11:29:14.899Z,50.57
2023-02-17T11:39:24.592Z,46.50
2023-02-17T11:49:52.548Z,48.17
2023-02-17T12:00:28.582Z,47.50
2023-02-17T12:10:50.908Z,48.10
2023-02-17T12:21:03.200Z,46.63
2023-02-17T12:31:28.045Z,44.77
2023-02-17T12:41:41.949Z,45.27
2023-02-17T12:52:13.407Z,43.07
2023-02-17T13:02:23.415Z,40.37
2023-02-17T13:12:25.846Z,37.27
2023-02-17T13:22:30.009Z,35.70
2023-02-17T13:32:36.992Z,34.50
2023-02-17T13:42:44.596Z,32.90
2023-02-17T13:52:46.707Z,33.50
2023-02-17T14:03:00.050Z,31.23
2023-02-17T14:13:05.788Z,38.53
2023-02-17T14:23:08.212Z,39.73
2023-02-17T14:33:18.834Z,30.27
2023-02-17T14:43:23.118Z,29.70
2023-02-17T14:53:29.286Z,31.80
2023-02-17T15:03:34.184Z,32.03
2023-02-17T15:13:36.263Z,31.57
2023-02-17T15:23:39.091Z,34.40
2023-02-17T15:33:41.916Z,34.90
2023-02-17T15:43:48.010Z,37.43
2023-02-17T15:53:55.057Z,34.47
2023-02-17T16:03:59.847Z,34.27
2023-02-17T16:14:02.226Z,33.17
2023-02-17T16:24:04.387Z,41.90
2023-02-17T16:34:14.274Z,33.00
2023-02-17T16:44:24.416Z,32.10
2023-02-17T16:54:26.588Z,30.00
2023-02-17T17:04:31.645Z,29.90
2023-02-17T17:14:33.731Z,30.87
2023-02-17T17:24:35.896Z,29.47
2023-02-17T17:34:40.397Z,30.27
2023-02-17T17:44:47.349Z,24.67
2023-02-17T17:54:56.546Z,25.07
2023-02-17T18:05:00.987Z,24.27
2023-02-17T18:15:08.116Z,13.50
2023-02-17T18:25:12.393Z,18.77
2023-02-17T18:35:14.684Z,20.03
2023-02-17T18:45:20.062Z,22.00
2023-02-17T18:55:24.421Z,21.87
2023-02-17T19:05:29.454Z,21.17
2023-02-17T19:15:32.683Z,24.13
2023-02-17T19:25:38.103Z,24.80
2023-02-17T19:35:41.834Z,22.97
2023-02-17T19:45:46.498Z,27.77
2023-02-17T19:55:48.621Z,29.05
2023-02-17T20:05:53.382Z,32.13
2023-02-17T20:16:00.573Z,27.50
2023-02-17T20:26:18.367Z,30.65
2023-02-17T20:36:25.666Z,33.67
2023-02-17T20:46:30.301Z,32.10
2023-02-17T20:56:43.708Z,30.45
2023-02-17T21:06:47.083Z,26.25
2023-02-17T21:16:51.503Z,24.88
2023-02-17T21:26:54.991Z,18.00
2023-02-17T21:37:00.025Z,20.80
2023-02-17T21:47:02.207Z,15.38
2023-02-17T21:57:04.845Z,11.00
2023-02-17T22:07:09.214Z,12.57
2023-02-17T22:17:16.230Z,8.17
2023-02-17T22:27:18.290Z,6.20
2023-02-17T22:37:23.614Z,5.63
2023-02-17T22:47:30.487Z,4.07
2023-02-17T22:57:34.831Z,5.33
2023-02-17T23:07:41.056Z,3.80
2023-02-17T23:17:59.516Z,4.18
2023-02-17T23:28:08.661Z,5.57
2023-02-17T23:38:14.654Z,5.00
2023-02-17T23:48:17.131Z,5.60
2023-02-17T23:58:21.656Z,4.53
